sensor_id;sensor_type;location;lat;lon;timestamp;pressure;altitude;pressure_sealevel;temperature;humidity
11936;BME280;6027;48.576;9.180;2023-06-10T00:02:07;96469.50;;;20.09;58.02
11936;BME280;6027;48.576;9.180;2023-06-10T00:04:33;96473.00;;;19.87;59.15
11936;BME280;6027;48.576;9.180;2023-06-10T00:06:58;96477.41;;;19.72;59.94
11936;BME280;6027;48.576;9.180;2023-06-10T00:09:24;96479.41;;;19.59;60.42
11936;BME280;6027;48.576;9.180;2023-06-10T00:11:50;96483.88;;;19.54;60.68
11936;BME280;6027;48.576;9.180;2023-06-10T00:14:16;96484.19;;;19.57;60.64
11936;BME280;6027;48.576;9.180;2023-06-10T00:16:41;96480.50;;;19.47;61.07
11936;BME280;6027;48.576;9.180;2023-06-10T00:19:10;96479.00;;;19.51;59.68
11936;BME280;6027;48.576;9.180;2023-06-10T00:21:39;96470.84;;;19.46;59.41
11936;BME280;6027;48.576;9.180;2023-06-10T00:24:08;96481.28;;;19.42;59.12
11936;BME280;6027;48.576;9.180;2023-06-10T00:26:40;96478.66;;;19.47;59.03
11936;BME280;6027;48.576;9.180;2023-06-10T00:29:07;96482.38;;;19.46;58.86
11936;BME280;6027;48.576;9.180;2023-06-10T00:31:34;96485.75;;;19.53;58.96
11936;BME280;6027;48.576;9.180;2023-06-10T00:34:00;96480.06;;;19.50;58.96
11936;BME280;6027;48.576;9.180;2023-06-10T00:36:25;96476.78;;;19.48;58.91
11936;BME280;6027;48.576;9.180;2023-06-10T00:38:52;96477.44;;;19.55;58.72
11936;BME280;6027;48.576;9.180;2023-06-10T00:41:17;96472.31;;;19.53;58.54
11936;BME280;6027;48.576;9.180;2023-06-10T00:43:43;96473.13;;;19.54;58.65
11936;BME280;6027;48.576;9.180;2023-06-10T00:46:09;96475.50;;;19.50;58.85
11936;BME280;6027;48.576;9.180;2023-06-10T00:48:35;96469.16;;;19.56;59.30
11936;BME280;6027;48.576;9.180;2023-06-10T00:51:00;96479.56;;;19.53;60.25
11936;BME280;6027;48.576;9.180;2023-06-10T00:53:26;96476.53;;;19.49;61.04
11936;BME280;6027;48.576;9.180;2023-06-10T00:55:53;96461.69;;;19.42;60.91
11936;BME280;6027;48.576;9.180;2023-06-10T00:58:18;96473.53;;;19.46;61.16
11936;BME280;6027;48.576;9.180;2023-06-10T01:00:44;96474.44;;;19.35;61.65
11936;BME280;6027;48.576;9.180;2023-06-10T01:03:10;96471.28;;;19.38;61.78
11936;BME280;6027;48.576;9.180;2023-06-10T01:05:40;96475.50;;;19.33;61.34
11936;BME280;6027;48.576;9.180;2023-06-10T01:08:25;96474.03;;;19.26;61.43
11936;BME280;6027;48.576;9.180;2023-06-10T01:10:57;96486.44;;;19.10;62.01
11936;BME280;6027;48.576;9.180;2023-06-10T01:13:25;96478.28;;;19.05;62.56
11936;BME280;6027;48.576;9.180;2023-06-10T01:15:55;96476.69;;;19.04;62.98
11936;BME280;6027;48.576;9.180;2023-06-10T01:18:21;96478.13;;;19.12;62.46
11936;BME280;6027;48.576;9.180;2023-06-10T01:20:47;96476.13;;;19.02;63.20
11936;BME280;6027;48.576;9.180;2023-06-10T01:23:14;96470.91;;;18.95;63.75
11936;BME280;6027;48.576;9.180;2023-06-10T01:25:43;96468.97;;;18.91;64.33
11936;BME280;6027;48.576;9.180;2023-06-10T01:30:50;96464.59;;;18.85;65.92
11936;BME280;6027;48.576;9.180;2023-06-10T01:33:26;96465.63;;;18.67;66.87
11936;BME280;6027;48.576;9.180;2023-06-10T01:35:53;96474.69;;;18.49;67.97
11936;BME280;6027;48.576;9.180;2023-06-10T01:38:19;96471.72;;;18.34;68.67
11936;BME280;6027;48.576;9.180;2023-06-10T01:40:46;96474.88;;;18.31;69.41
11936;BME280;6027;48.576;9.180;2023-06-10T01:43:12;96475.94;;;18.30;69.25
11936;BME280;6027;48.576;9.180;2023-06-10T01:45:38;96470.88;;;18.17;69.53
11936;BME280;6027;48.576;9.180;2023-06-10T01:48:03;96471.69;;;18.17;69.16
11936;BME280;6027;48.576;9.180;2023-06-10T01:50:29;96474.38;;;18.17;69.77
11936;BME280;6027;48.576;9.180;2023-06-10T01:52:57;96470.66;;;18.18;70.59
11936;BME280;6027;48.576;9.180;2023-06-10T01:55:23;96477.97;;;18.23;70.19
11936;BME280;6027;48.576;9.180;2023-06-10T01:57:49;96476.81;;;18.19;70.16
11936;BME280;6027;48.576;9.180;2023-06-10T02:00:14;96480.91;;;18.21;69.88
11936;BME280;6027;48.576;9.180;2023-06-10T02:02:40;96481.72;;;18.22;69.66
11936;BME280;6027;48.576;9.180;2023-06-10T02:05:06;96484.09;;;18.35;69.14
11936;BME280;6027;48.576;9.180;2023-06-10T02:07:32;96485.72;;;18.36;69.01
11936;BME280;6027;48.576;9.180;2023-06-10T02:09:57;96482.66;;;18.44;69.24
11936;BME280;6027;48.576;9.180;2023-06-10T02:12:23;96479.72;;;18.46;70.18
11936;BME280;6027;48.576;9.180;2023-06-10T02:14:48;96483.13;;;18.41;69.73
11936;BME280;6027;48.576;9.180;2023-06-10T02:17:13;96489.31;;;18.42;69.74
11936;BME280;6027;48.576;9.180;2023-06-10T02:19:40;96482.63;;;18.27;69.96
11936;BME280;6027;48.576;9.180;2023-06-10T02:22:08;96483.59;;;18.38;69.20
11936;BME280;6027;48.576;9.180;2023-06-10T02:24:36;96486.28;;;18.38;69.30
11936;BME280;6027;48.576;9.180;2023-06-10T02:27:02;96485.22;;;18.39;70.70
11936;BME280;6027;48.576;9.180;2023-06-10T02:29:28;96492.13;;;18.35;70.72
11936;BME280;6027;48.576;9.180;2023-06-10T02:31:54;96484.53;;;18.15;71.03
11936;BME280;6027;48.576;9.180;2023-06-10T02:34:19;96490.97;;;18.03;71.79
11936;BME280;6027;48.576;9.180;2023-06-10T02:36:45;96487.63;;;17.95;72.19
11936;BME280;6027;48.576;9.180;2023-06-10T02:39:10;96496.34;;;18.03;71.91
11936;BME280;6027;48.576;9.180;2023-06-10T02:41:36;96499.25;;;18.01;72.65
11936;BME280;6027;48.576;9.180;2023-06-10T02:44:01;96506.38;;;17.95;73.22
11936;BME280;6027;48.576;9.180;2023-06-10T02:46:26;96506.78;;;17.52;74.75
11936;BME280;6027;48.576;9.180;2023-06-10T02:48:54;96499.81;;;17.40;75.24
11936;BME280;6027;48.576;9.180;2023-06-10T02:51:19;96514.63;;;17.31;76.05
11936;BME280;6027;48.576;9.180;2023-06-10T02:53:46;96508.06;;;17.15;77.24
11936;BME280;6027;48.576;9.180;2023-06-10T02:56:11;96510.53;;;17.05;78.09
11936;BME280;6027;48.576;9.180;2023-06-10T02:58:38;96499.47;;;17.01;78.56
11936;BME280;6027;48.576;9.180;2023-06-10T03:01:03;96507.50;;;17.01;79.32
11936;BME280;6027;48.576;9.180;2023-06-10T03:03:48;96507.38;;;17.19;78.65
11936;BME280;6027;48.576;9.180;2023-06-10T03:06:15;96513.56;;;17.20;78.20
11936;BME280;6027;48.576;9.180;2023-06-10T03:08:41;96514.72;;;17.12;78.73
11936;BME280;6027;48.576;9.180;2023-06-10T03:11:07;96513.66;;;16.90;79.69
11936;BME280;6027;48.576;9.180;2023-06-10T03:13:32;96513.75;;;16.83;80.05
11936;BME280;6027;48.576;9.180;2023-06-10T03:15:58;96518.28;;;16.71;81.01
11936;BME280;6027;48.576;9.180;2023-06-10T03:18:27;96522.47;;;16.49;82.87
11936;BME280;6027;48.576;9.180;2023-06-10T03:20:53;96527.81;;;16.49;83.07
11936;BME280;6027;48.576;9.180;2023-06-10T03:23:19;96525.53;;;16.52;83.01
11936;BME280;6027;48.576;9.180;2023-06-10T03:25:44;96524.59;;;16.58;82.97
11936;BME280;6027;48.576;9.180;2023-06-10T03:28:10;96521.81;;;16.53;83.23
11936;BME280;6027;48.576;9.180;2023-06-10T03:30:36;96538.28;;;16.50;83.64
11936;BME280;6027;48.576;9.180;2023-06-10T03:33:01;96513.06;;;16.16;84.74
11936;BME280;6027;48.576;9.180;2023-06-10T03:35:27;96532.84;;;16.27;85.13
11936;BME280;6027;48.576;9.180;2023-06-10T03:37:52;96526.31;;;16.23;84.99
11936;BME280;6027;48.576;9.180;2023-06-10T03:40:17;96528.00;;;16.36;84.27
11936;BME280;6027;48.576;9.180;2023-06-10T03:42:43;96526.88;;;16.43;84.26
11936;BME280;6027;48.576;9.180;2023-06-10T03:45:09;96530.94;;;16.46;84.48
11936;BME280;6027;48.576;9.180;2023-06-10T03:47:36;96533.25;;;16.42;84.98
11936;BME280;6027;48.576;9.180;2023-06-10T03:50:05;96541.72;;;16.39;85.55
11936;BME280;6027;48.576;9.180;2023-06-10T03:52:30;96542.53;;;16.40;85.69
11936;BME280;6027;48.576;9.180;2023-06-10T03:54:56;96548.66;;;16.29;86.27
11936;BME280;6027;48.576;9.180;2023-06-10T03:57:21;96538.88;;;16.22;87.15
11936;BME280;6027;48.576;9.180;2023-06-10T03:59:47;96553.03;;;16.23;87.47
11936;BME280;6027;48.576;9.180;2023-06-10T04:02:12;96552.75;;;16.31;87.30
11936;BME280;6027;48.576;9.180;2023-06-10T04:04:38;96551.00;;;16.37;86.90
11936;BME280;6027;48.576;9.180;2023-06-10T04:07:04;96560.16;;;16.29;87.08
11936;BME280;6027;48.576;9.180;2023-06-10T04:09:31;96558.16;;;16.24;87.94
11936;BME280;6027;48.576;9.180;2023-06-10T04:11:57;96556.44;;;16.30;87.17
11936;BME280;6027;48.576;9.180;2023-06-10T04:14:22;96553.66;;;16.37;87.57
11936;BME280;6027;48.576;9.180;2023-06-10T04:16:47;96563.97;;;16.51;87.29
11936;BME280;6027;48.576;9.180;2023-06-10T04:19:13;96561.88;;;16.53;86.94
11936;BME280;6027;48.576;9.180;2023-06-10T04:21:38;96555.63;;;16.59;86.32
11936;BME280;6027;48.576;9.180;2023-06-10T04:24:04;96558.63;;;16.51;86.95
11936;BME280;6027;48.576;9.180;2023-06-10T04:26:30;96556.84;;;16.45;87.66
11936;BME280;6027;48.576;9.180;2023-06-10T04:28:55;96560.41;;;16.39;88.10
11936;BME280;6027;48.576;9.180;2023-06-10T04:31:20;96560.56;;;16.44;88.63
11936;BME280;6027;48.576;9.180;2023-06-10T04:33:46;96567.16;;;16.42;89.52
11936;BME280;6027;48.576;9.180;2023-06-10T04:36:11;96563.25;;;16.44;89.29
11936;BME280;6027;48.576;9.180;2023-06-10T04:38:37;96556.72;;;16.40;89.49
11936;BME280;6027;48.576;9.180;2023-06-10T04:41:02;96564.59;;;16.35;89.83
11936;BME280;6027;48.576;9.180;2023-06-10T04:43:29;96571.94;;;16.40;90.65
11936;BME280;6027;48.576;9.180;2023-06-10T04:45:55;96572.75;;;16.40;90.67
11936;BME280;6027;48.576;9.180;2023-06-10T04:48:21;96570.13;;;16.52;89.70
11936;BME280;6027;48.576;9.180;2023-06-10T04:50:46;96577.78;;;16.48;90.37
11936;BME280;6027;48.576;9.180;2023-06-10T04:53:12;96573.28;;;16.61;89.90
11936;BME280;6027;48.576;9.180;2023-06-10T04:55:37;96571.16;;;16.69;90.01
11936;BME280;6027;48.576;9.180;2023-06-10T04:58:02;96567.44;;;16.70;90.17
11936;BME280;6027;48.576;9.180;2023-06-10T05:00:28;96569.31;;;16.81;89.71
11936;BME280;6027;48.576;9.180;2023-06-10T05:02:53;96574.22;;;16.96;89.20
11936;BME280;6027;48.576;9.180;2023-06-10T05:05:19;96568.56;;;17.04;88.98
11936;BME280;6027;48.576;9.180;2023-06-10T05:07:45;96570.66;;;17.14;88.52
11936;BME280;6027;48.576;9.180;2023-06-10T05:10:10;96577.16;;;17.18;87.64
11936;BME280;6027;48.576;9.180;2023-06-10T05:12:38;96580.56;;;17.25;87.62
11936;BME280;6027;48.576;9.180;2023-06-10T05:15:05;96581.16;;;17.27;88.24
11936;BME280;6027;48.576;9.180;2023-06-10T05:17:31;96587.69;;;17.31;87.67
11936;BME280;6027;48.576;9.180;2023-06-10T05:19:56;96582.66;;;17.35;87.94
11936;BME280;6027;48.576;9.180;2023-06-10T05:22:22;96588.94;;;17.40;87.45
11936;BME280;6027;48.576;9.180;2023-06-10T05:24:50;96588.84;;;17.47;88.10
11936;BME280;6027;48.576;9.180;2023-06-10T05:27:16;96575.22;;;17.37;89.43
11936;BME280;6027;48.576;9.180;2023-06-10T05:29:41;96591.38;;;17.42;91.20
11936;BME280;6027;48.576;9.180;2023-06-10T05:32:07;96592.44;;;17.41;92.22
11936;BME280;6027;48.576;9.180;2023-06-10T05:34:33;96585.56;;;17.45;92.24
11936;BME280;6027;48.576;9.180;2023-06-10T05:36:59;96592.91;;;17.49;91.97
11936;BME280;6027;48.576;9.180;2023-06-10T05:39:24;96595.22;;;17.57;90.76
11936;BME280;6027;48.576;9.180;2023-06-10T05:41:50;96599.78;;;17.57;90.02
11936;BME280;6027;48.576;9.180;2023-06-10T05:44:15;96600.50;;;17.64;90.04
11936;BME280;6027;48.576;9.180;2023-06-10T05:46:41;96601.69;;;17.68;89.21
11936;BME280;6027;48.576;9.180;2023-06-10T05:49:06;96595.38;;;17.74;86.61
11936;BME280;6027;48.576;9.180;2023-06-10T05:51:32;96603.16;;;17.76;85.89
11936;BME280;6027;48.576;9.180;2023-06-10T05:53:57;96586.63;;;17.79;86.47
11936;BME280;6027;48.576;9.180;2023-06-10T05:56:23;96607.22;;;17.90;87.58
11936;BME280;6027;48.576;9.180;2023-06-10T05:58:48;96605.25;;;17.97;86.03
11936;BME280;6027;48.576;9.180;2023-06-10T06:01:14;96590.47;;;17.94;86.21
11936;BME280;6027;48.576;9.180;2023-06-10T06:03:39;96596.28;;;18.03;87.13
11936;BME280;6027;48.576;9.180;2023-06-10T06:06:05;96596.63;;;18.07;87.39
11936;BME280;6027;48.576;9.180;2023-06-10T06:08:30;96593.13;;;18.06;86.22
11936;BME280;6027;48.576;9.180;2023-06-10T06:10:56;96604.03;;;18.16;85.69
11936;BME280;6027;48.576;9.180;2023-06-10T06:13:21;96595.06;;;18.22;84.58
11936;BME280;6027;48.576;9.180;2023-06-10T06:15:46;96595.97;;;18.28;84.42
11936;BME280;6027;48.576;9.180;2023-06-10T06:18:12;96596.41;;;18.37;84.32
11936;BME280;6027;48.576;9.180;2023-06-10T06:20:37;96605.84;;;18.39;85.18
11936;BME280;6027;48.576;9.180;2023-06-10T06:23:03;96600.09;;;18.47;86.05
11936;BME280;6027;48.576;9.180;2023-06-10T06:25:28;96592.41;;;18.51;86.23
11936;BME280;6027;48.576;9.180;2023-06-10T06:27:54;96599.72;;;18.55;85.98
11936;BME280;6027;48.576;9.180;2023-06-10T06:30:19;96599.00;;;18.72;84.29
11936;BME280;6027;48.576;9.180;2023-06-10T06:32:45;96595.50;;;18.71;82.60
11936;BME280;6027;48.576;9.180;2023-06-10T06:35:10;96595.03;;;18.74;83.50
11936;BME280;6027;48.576;9.180;2023-06-10T06:37:36;96604.47;;;18.93;83.84
11936;BME280;6027;48.576;9.180;2023-06-10T06:40:02;96602.81;;;19.04;83.47
11936;BME280;6027;48.576;9.180;2023-06-10T06:42:29;96608.72;;;19.06;82.94
11936;BME280;6027;48.576;9.180;2023-06-10T06:44:54;96611.59;;;19.16;82.38
11936;BME280;6027;48.576;9.180;2023-06-10T06:47:19;96608.19;;;19.21;83.24
11936;BME280;6027;48.576;9.180;2023-06-10T06:49:48;96609.63;;;19.28;81.96
11936;BME280;6027;48.576;9.180;2023-06-10T06:52:14;96609.25;;;19.37;81.18
11936;BME280;6027;48.576;9.180;2023-06-10T06:54:40;96612.09;;;19.47;79.99
11936;BME280;6027;48.576;9.180;2023-06-10T06:57:05;96607.28;;;19.49;79.87
11936;BME280;6027;48.576;9.180;2023-06-10T06:59:32;96614.50;;;19.60;79.54
11936;BME280;6027;48.576;9.180;2023-06-10T07:01:58;96616.94;;;19.61;79.73
11936;BME280;6027;48.576;9.180;2023-06-10T07:04:23;96611.13;;;19.70;78.72
11936;BME280;6027;48.576;9.180;2023-06-10T07:06:49;96615.84;;;19.79;78.00
11936;BME280;6027;48.576;9.180;2023-06-10T07:09:14;96621.22;;;19.79;78.50
11936;BME280;6027;48.576;9.180;2023-06-10T07:11:40;96613.88;;;19.91;78.34
11936;BME280;6027;48.576;9.180;2023-06-10T07:14:06;96616.63;;;19.96;78.08
11936;BME280;6027;48.576;9.180;2023-06-10T07:16:32;96613.50;;;20.05;78.92
11936;BME280;6027;48.576;9.180;2023-06-10T07:18:57;96611.38;;;20.07;78.58
11936;BME280;6027;48.576;9.180;2023-06-10T07:21:22;96613.97;;;20.18;78.35
11936;BME280;6027;48.576;9.180;2023-06-10T07:23:48;96614.91;;;20.29;76.77
11936;BME280;6027;48.576;9.180;2023-06-10T07:26:14;96611.22;;;20.35;77.82
11936;BME280;6027;48.576;9.180;2023-06-10T07:28:40;96610.63;;;20.50;76.16
11936;BME280;6027;48.576;9.180;2023-06-10T07:31:07;96601.78;;;20.54;74.82
11936;BME280;6027;48.576;9.180;2023-06-10T07:33:32;96608.31;;;20.58;76.70
11936;BME280;6027;48.576;9.180;2023-06-10T07:35:57;96606.28;;;20.71;74.90
11936;BME280;6027;48.576;9.180;2023-06-10T07:38:24;96608.81;;;20.82;74.17
11936;BME280;6027;48.576;9.180;2023-06-10T07:40:50;96596.72;;;20.85;74.67
11936;BME280;6027;48.576;9.180;2023-06-10T07:43:16;96598.72;;;20.94;74.43
11936;BME280;6027;48.576;9.180;2023-06-10T07:45:42;96597.69;;;21.00;72.88
11936;BME280;6027;48.576;9.180;2023-06-10T07:48:07;96603.63;;;21.02;72.29
11936;BME280;6027;48.576;9.180;2023-06-10T07:50:33;96599.38;;;21.07;73.09
11936;BME280;6027;48.576;9.180;2023-06-10T07:52:59;96600.53;;;21.16;72.33
11936;BME280;6027;48.576;9.180;2023-06-10T07:55:24;96600.34;;;21.22;72.92
11936;BME280;6027;48.576;9.180;2023-06-10T07:57:52;96596.13;;;21.36;71.93
11936;BME280;6027;48.576;9.180;2023-06-10T08:00:18;96602.66;;;21.41;71.48
11936;BME280;6027;48.576;9.180;2023-06-10T08:02:44;96599.50;;;21.49;70.94
11936;BME280;6027;48.576;9.180;2023-06-10T08:05:09;96597.88;;;21.48;70.78
11936;BME280;6027;48.576;9.180;2023-06-10T08:07:35;96599.25;;;21.55;70.80
11936;BME280;6027;48.576;9.180;2023-06-10T08:10:01;96599.59;;;21.64;70.78
11936;BME280;6027;48.576;9.180;2023-06-10T08:12:27;96595.34;;;21.73;69.60
11936;BME280;6027;48.576;9.180;2023-06-10T08:14:56;96599.69;;;21.79;70.51
11936;BME280;6027;48.576;9.180;2023-06-10T08:17:21;96588.94;;;21.84;68.39
11936;BME280;6027;48.576;9.180;2023-06-10T08:19:47;96591.69;;;21.89;68.74
11936;BME280;6027;48.576;9.180;2023-06-10T08:22:13;96591.97;;;21.98;68.04
11936;BME280;6027;48.576;9.180;2023-06-10T08:24:39;96589.34;;;22.03;65.24
11936;BME280;6027;48.576;9.180;2023-06-10T08:27:05;96592.38;;;22.12;65.79
11936;BME280;6027;48.576;9.180;2023-06-10T08:29:31;96587.50;;;22.14;65.48
11936;BME280;6027;48.576;9.180;2023-06-10T08:31:57;96590.56;;;22.27;66.38
11936;BME280;6027;48.576;9.180;2023-06-10T08:34:23;96584.38;;;22.37;64.82
11936;BME280;6027;48.576;9.180;2023-06-10T08:36:48;96595.72;;;22.39;63.58
11936;BME280;6027;48.576;9.180;2023-06-10T08:39:19;96599.28;;;22.55;62.24
11936;BME280;6027;48.576;9.180;2023-06-10T08:41:51;96587.97;;;22.58;63.34
11936;BME280;6027;48.576;9.180;2023-06-10T08:44:30;96590.41;;;22.64;63.04
11936;BME280;6027;48.576;9.180;2023-06-10T08:46:59;96589.38;;;22.70;62.34
11936;BME280;6027;48.576;9.180;2023-06-10T08:49:26;96590.16;;;22.71;62.51
11936;BME280;6027;48.576;9.180;2023-06-10T08:51:58;96591.03;;;22.82;61.73
11936;BME280;6027;48.576;9.180;2023-06-10T08:54:30;96588.34;;;22.82;61.37
11936;BME280;6027;48.576;9.180;2023-06-10T08:56:59;96585.63;;;22.92;61.66
11936;BME280;6027;48.576;9.180;2023-06-10T08:59:25;96581.06;;;22.97;62.74
11936;BME280;6027;48.576;9.180;2023-06-10T09:01:52;96589.19;;;23.02;62.14
11936;BME280;6027;48.576;9.180;2023-06-10T09:04:18;96591.06;;;23.02;62.17
11936;BME280;6027;48.576;9.180;2023-06-10T09:06:44;96585.13;;;23.10;58.75
11936;BME280;6027;48.576;9.180;2023-06-10T09:09:11;96580.53;;;23.16;59.19
11936;BME280;6027;48.576;9.180;2023-06-10T09:11:38;96583.00;;;23.27;58.37
11936;BME280;6027;48.576;9.180;2023-06-10T09:14:06;96590.81;;;23.24;59.16
11936;BME280;6027;48.576;9.180;2023-06-10T09:16:32;96586.50;;;23.33;58.88
11936;BME280;6027;48.576;9.180;2023-06-10T09:18:57;96581.91;;;23.38;57.80
11936;BME280;6027;48.576;9.180;2023-06-10T09:21:24;96579.75;;;23.40;58.13
11936;BME280;6027;48.576;9.180;2023-06-10T09:23:51;96589.50;;;23.52;57.75
11936;BME280;6027;48.576;9.180;2023-06-10T09:26:17;96580.31;;;23.53;57.73
11936;BME280;6027;48.576;9.180;2023-06-10T09:28:48;96575.97;;;23.57;57.77
11936;BME280;6027;48.576;9.180;2023-06-10T09:31:16;96576.75;;;23.67;55.90
11936;BME280;6027;48.576;9.180;2023-06-10T09:33:44;96578.66;;;23.67;55.57
11936;BME280;6027;48.576;9.180;2023-06-10T09:36:10;96577.56;;;23.78;54.75
11936;BME280;6027;48.576;9.180;2023-06-10T09:38:36;96581.34;;;23.77;54.81
11936;BME280;6027;48.576;9.180;2023-06-10T09:41:02;96575.69;;;23.84;54.81
11936;BME280;6027;48.576;9.180;2023-06-10T09:43:39;96576.44;;;23.89;54.55
11936;BME280;6027;48.576;9.180;2023-06-10T09:46:05;96577.53;;;23.93;54.16
11936;BME280;6027;48.576;9.180;2023-06-10T09:48:34;96576.44;;;23.94;54.22
11936;BME280;6027;48.576;9.180;2023-06-10T09:51:00;96565.63;;;23.94;54.61
11936;BME280;6027;48.576;9.180;2023-06-10T09:53:26;96569.16;;;24.00;53.49
11936;BME280;6027;48.576;9.180;2023-06-10T09:55:51;96576.16;;;24.01;54.28
11936;BME280;6027;48.576;9.180;2023-06-10T09:58:17;96573.44;;;24.06;54.24
11936;BME280;6027;48.576;9.180;2023-06-10T10:00:42;96568.56;;;24.08;52.60
11936;BME280;6027;48.576;9.180;2023-06-10T10:03:08;96573.13;;;24.23;52.03
11936;BME280;6027;48.576;9.180;2023-06-10T10:05:33;96580.97;;;24.29;51.57
11936;BME280;6027;48.576;9.180;2023-06-10T10:07:59;96575.81;;;24.33;51.12
11936;BME280;6027;48.576;9.180;2023-06-10T10:10:24;96567.13;;;24.41;51.05
11936;BME280;6027;48.576;9.180;2023-06-10T10:12:56;96562.75;;;24.45;51.37
11936;BME280;6027;48.576;9.180;2023-06-10T10:15:25;96566.88;;;24.37;50.40
11936;BME280;6027;48.576;9.180;2023-06-10T10:18:08;96571.97;;;24.44;52.02
11936;BME280;6027;48.576;9.180;2023-06-10T10:20:45;96564.91;;;24.48;52.22
11936;BME280;6027;48.576;9.180;2023-06-10T10:23:14;96561.38;;;24.53;51.69
11936;BME280;6027;48.576;9.180;2023-06-10T10:25:44;96562.19;;;24.58;50.99
11936;BME280;6027;48.576;9.180;2023-06-10T10:28:12;96560.53;;;24.62;49.60
11936;BME280;6027;48.576;9.180;2023-06-10T10:30:49;96556.16;;;24.66;50.58
11936;BME280;6027;48.576;9.180;2023-06-10T10:33:20;96562.63;;;24.75;51.38
11936;BME280;6027;48.576;9.180;2023-06-10T10:35:49;96562.00;;;24.84;49.84
11936;BME280;6027;48.576;9.180;2023-06-10T10:38:15;96563.97;;;24.78;48.72
11936;BME280;6027;48.576;9.180;2023-06-10T10:40:41;96557.97;;;24.81;47.91
11936;BME280;6027;48.576;9.180;2023-06-10T10:43:07;96560.09;;;24.89;47.93
11936;BME280;6027;48.576;9.180;2023-06-10T10:45:34;96561.97;;;24.94;47.44
11936;BME280;6027;48.576;9.180;2023-06-10T10:48:05;96556.25;;;25.00;48.15
11936;BME280;6027;48.576;9.180;2023-06-10T10:50:34;96549.97;;;25.05;47.42
11936;BME280;6027;48.576;9.180;2023-06-10T10:53:01;96554.56;;;25.09;47.69
11936;BME280;6027;48.576;9.180;2023-06-10T10:55:28;96557.22;;;25.15;47.87
11936;BME280;6027;48.576;9.180;2023-06-10T11:02:59;96554.72;;;25.23;47.56
11936;BME280;6027;48.576;9.180;2023-06-10T11:05:46;96546.88;;;25.22;50.96
11936;BME280;6027;48.576;9.180;2023-06-10T11:11:17;96550.28;;;25.37;47.33
11936;BME280;6027;48.576;9.180;2023-06-10T11:13:57;96551.09;;;25.38;46.84
11936;BME280;6027;48.576;9.180;2023-06-10T11:16:25;96546.41;;;25.43;47.12
11936;BME280;6027;48.576;9.180;2023-06-10T11:18:54;96541.81;;;25.44;46.99
11936;BME280;6027;48.576;9.180;2023-06-10T11:21:20;96546.38;;;25.48;46.28
11936;BME280;6027;48.576;9.180;2023-06-10T11:23:45;96546.13;;;25.45;46.35
11936;BME280;6027;48.576;9.180;2023-06-10T11:31:24;96546.88;;;25.56;45.08
11936;BME280;6027;48.576;9.180;2023-06-10T11:36:24;96545.69;;;25.67;45.17
11936;BME280;6027;48.576;9.180;2023-06-10T11:38:53;96540.22;;;25.72;45.79
11936;BME280;6027;48.576;9.180;2023-06-10T11:41:19;96542.88;;;25.77;45.65
11936;BME280;6027;48.576;9.180;2023-06-10T11:43:45;96538.03;;;25.74;44.78
11936;BME280;6027;48.576;9.180;2023-06-10T11:46:11;96537.56;;;25.67;44.96
11936;BME280;6027;48.576;9.180;2023-06-10T11:48:37;96535.94;;;25.66;45.25
11936;BME280;6027;48.576;9.180;2023-06-10T11:51:07;96536.94;;;25.75;44.83
11936;BME280;6027;48.576;9.180;2023-06-10T11:53:33;96530.44;;;25.76;44.34
11936;BME280;6027;48.576;9.180;2023-06-10T11:55:59;96534.41;;;25.84;44.52
11936;BME280;6027;48.576;9.180;2023-06-10T11:58:24;96527.03;;;25.89;43.84
11936;BME280;6027;48.576;9.180;2023-06-10T12:00:55;96524.88;;;25.86;43.99
11936;BME280;6027;48.576;9.180;2023-06-10T12:03:24;96528.13;;;25.88;43.11
11936;BME280;6027;48.576;9.180;2023-06-10T12:05:57;96522.22;;;25.81;42.48
11936;BME280;6027;48.576;9.180;2023-06-10T12:08:27;96522.72;;;25.83;42.33
11936;BME280;6027;48.576;9.180;2023-06-10T12:10:56;96517.38;;;25.78;42.63
11936;BME280;6027;48.576;9.180;2023-06-10T12:13:22;96520.38;;;25.76;43.00
11936;BME280;6027;48.576;9.180;2023-06-10T12:15:49;96522.63;;;25.93;42.19
11936;BME280;6027;48.576;9.180;2023-06-10T12:18:22;96522.91;;;25.92;42.88
11936;BME280;6027;48.576;9.180;2023-06-10T12:20:49;96517.38;;;26.02;42.62
11936;BME280;6027;48.576;9.180;2023-06-10T12:23:16;96515.53;;;25.97;41.21
11936;BME280;6027;48.576;9.180;2023-06-10T12:25:55;96513.22;;;26.09;42.04
11936;BME280;6027;48.576;9.180;2023-06-10T12:28:22;96508.06;;;26.08;41.67
11936;BME280;6027;48.576;9.180;2023-06-10T12:30:48;96520.22;;;26.15;41.06
11936;BME280;6027;48.576;9.180;2023-06-10T12:33:21;96515.75;;;26.25;41.37
11936;BME280;6027;48.576;9.180;2023-06-10T12:35:51;96507.66;;;26.20;41.05
11936;BME280;6027;48.576;9.180;2023-06-10T12:38:24;96504.88;;;26.25;42.17
11936;BME280;6027;48.576;9.180;2023-06-10T12:40:52;96503.22;;;26.29;41.83
11936;BME280;6027;48.576;9.180;2023-06-10T12:43:35;96508.81;;;26.37;41.87
11936;BME280;6027;48.576;9.180;2023-06-10T12:46:10;96511.75;;;26.60;40.74
11936;BME280;6027;48.576;9.180;2023-06-10T12:48:49;96505.91;;;26.53;40.53
11936;BME280;6027;48.576;9.180;2023-06-10T12:51:14;96503.38;;;26.56;41.93
11936;BME280;6027;48.576;9.180;2023-06-10T12:53:40;96500.38;;;26.76;41.14
11936;BME280;6027;48.576;9.180;2023-06-10T12:56:05;96507.44;;;26.77;41.30
11936;BME280;6027;48.576;9.180;2023-06-10T12:58:31;96511.19;;;26.63;41.54
11936;BME280;6027;48.576;9.180;2023-06-10T13:00:56;96495.41;;;26.65;41.76
11936;BME280;6027;48.576;9.180;2023-06-10T13:03:21;96492.91;;;26.68;40.53
11936;BME280;6027;48.576;9.180;2023-06-10T13:05:47;96506.91;;;26.75;40.10
11936;BME280;6027;48.576;9.180;2023-06-10T13:08:13;96501.13;;;26.63;40.26
11936;BME280;6027;48.576;9.180;2023-06-10T13:10:39;96501.72;;;26.60;40.46
11936;BME280;6027;48.576;9.180;2023-06-10T13:13:04;96498.47;;;26.58;40.51
11936;BME280;6027;48.576;9.180;2023-06-10T13:15:33;96485.19;;;26.57;40.61
11936;BME280;6027;48.576;9.180;2023-06-10T13:18:02;96488.59;;;26.67;40.53
11936;BME280;6027;48.576;9.180;2023-06-10T13:20:29;96483.44;;;26.66;40.44
11936;BME280;6027;48.576;9.180;2023-06-10T13:22:54;96473.38;;;26.66;40.16
11936;BME280;6027;48.576;9.180;2023-06-10T13:25:20;96477.13;;;26.70;39.48
11936;BME280;6027;48.576;9.180;2023-06-10T13:27:45;96465.97;;;26.72;39.81